createdAt,value
2022-07-26T00:03:04.483Z,21.6
2022-07-26T00:17:30.787Z,21.1
2022-07-26T00:31:57.742Z,20.9
2022-07-26T00:46:25.017Z,20.9
2022-07-26T01:00:52.742Z,20.8
2022-07-26T01:15:19.606Z,20.7
2022-07-26T01:29:47.473Z,20.8
2022-07-26T01:44:14.171Z,20.7
2022-07-26T01:58:41.917Z,20.4
2022-07-26T02:13:09.409Z,20.2
2022-07-26T02:27:36.720Z,19.9
2022-07-26T02:42:04.518Z,20
2022-07-26T02:56:32.711Z,20.1
2022-07-26T03:10:59.762Z,20.3
2022-07-26T03:25:27.100Z,20.2
2022-07-26T03:39:54.338Z,19.6
2022-07-26T03:54:22.440Z,19.6
2022-07-26T04:08:50.085Z,19.8
2022-07-26T04:23:17.924Z,19.4
2022-07-26T04:37:45.368Z,19.4
2022-07-26T04:52:10.606Z,19.7
2022-07-26T05:06:38.769Z,20
2022-07-26T05:21:06.453Z,19.5
2022-07-26T05:35:34.408Z,19.3
2022-07-26T05:50:03.080Z,19.4
2022-07-26T06:04:29.952Z,19.6
2022-07-26T06:18:58.190Z,19.6
2022-07-26T06:33:26.896Z,19.5
2022-07-26T06:47:55.587Z,19.9
2022-07-26T07:02:22.983Z,19.8
2022-07-26T07:16:50.734Z,19.5
2022-07-26T07:31:16.111Z,20.1
2022-07-26T07:45:48.247Z,20
2022-07-26T08:00:13.153Z,19.9
2022-07-26T08:14:42.307Z,19.9
2022-07-26T08:29:11.393Z,20.5
2022-07-26T08:43:51.478Z,20.4
2022-07-26T08:58:14.595Z,21.2
2022-07-26T09:12:40.448Z,20.9
2022-07-26T09:27:13.464Z,20.3
2022-07-26T09:41:43.341Z,20.7
2022-07-26T09:56:09.467Z,21.5
2022-07-26T10:10:35.793Z,21.6
2022-07-26T10:25:06.111Z,22.3
2022-07-26T10:39:35.257Z,22.9
2022-07-26T10:54:03.539Z,23.8
2022-07-26T11:08:31.730Z,23.3
2022-07-26T11:23:00.138Z,23.2
2022-07-26T11:37:27.935Z,23
2022-07-26T11:51:54.933Z,22.7
2022-07-26T12:06:23.024Z,22.6
2022-07-26T12:20:54.726Z,22.3
2022-07-26T12:35:24.302Z,22.4
2022-07-26T12:49:52.098Z,22.6
2022-07-26T13:04:21.507Z,22.2
2022-07-26T13:18:47.820Z,22.3
2022-07-26T13:33:16.244Z,22.5
2022-07-26T13:47:44.002Z,22.5
2022-07-26T14:02:11.207Z,22.6
2022-07-26T14:16:41.192Z,23.4
2022-07-26T14:31:12.437Z,23.5
2022-07-26T14:45:39.674Z,24
2022-07-26T15:00:15.354Z,24.6
2022-07-26T15:14:43.297Z,23.5
2022-07-26T15:29:12.393Z,23.7
2022-07-26T15:43:43.862Z,23.4
2022-07-26T15:58:13.094Z,23.3
2022-07-26T16:12:42.134Z,23
2022-07-26T16:27:11.263Z,22.6
2022-07-26T16:41:33.605Z,22.2
2022-07-26T16:56:00.825Z,21.7
2022-07-26T17:10:27.836Z,21.3
2022-07-26T17:24:55.102Z,21.3
2022-07-26T17:39:23.648Z,21.6
2022-07-26T17:54:08.479Z,21.6
2022-07-26T18:08:37.486Z,21.5
2022-07-26T18:23:02.667Z,21
2022-07-26T18:37:30.456Z,21
2022-07-26T18:51:59.857Z,20.9
2022-07-26T19:06:29.013Z,20.7
2022-07-26T19:20:57.220Z,20.5
2022-07-26T19:35:25.613Z,20.2
2022-07-26T19:49:52.894Z,19.7
2022-07-26T20:04:21.917Z,20
2022-07-26T20:18:49.215Z,19.9
2022-07-26T20:33:16.400Z,19.7
2022-07-26T20:47:42.545Z,19.4
2022-07-26T21:02:16.601Z,19.5
2022-07-26T21:16:45.763Z,19.3
2022-07-26T21:31:09.773Z,18.8
2022-07-26T21:45:37.166Z,19
2022-07-26T22:00:04.359Z,18.9
2022-07-26T22:14:32.397Z,18.8
2022-07-26T22:29:06.641Z,18.8
2022-07-26T22:43:36.869Z,18.7
2022-07-26T22:58:01.185Z,18.8
2022-07-26T23:12:30.194Z,18.9
2022-07-26T23:26:56.807Z,18.6
2022-07-26T23:41:24.221Z,18.5
2022-07-26T23:55:49.860Z,18.4
